createdAt,value
2022-07-29T00:00:34.065Z,66.30
2022-07-29T00:01:34.056Z,66.60
2022-07-29T00:02:34.091Z,66.50
2022-07-29T00:03:34.111Z,66.50
2022-07-29T00:04:34.081Z,66.30
2022-07-29T00:05:34.046Z,66.30
2022-07-29T00:06:34.008Z,66.10
2022-07-29T00:07:34.018Z,66.10
2022-07-29T00:08:33.978Z,66.23
2022-07-29T00:09:33.976Z,66.13
2022-07-29T00:10:34.979Z,66.43
2022-07-29T00:11:33.959Z,66.74
2022-07-29T00:12:33.946Z,66.53
2022-07-29T00:13:33.934Z,66.33
2022-07-29T00:14:33.919Z,66.53
2022-07-29T00:15:33.934Z,66.74
2022-07-29T00:16:33.969Z,66.63
2022-07-29T00:17:33.890Z,66.74
2022-07-29T00:18:33.875Z,66.94
2022-07-29T00:19:33.869Z,67.03
2022-07-29T00:20:33.856Z,67.14
2022-07-29T00:21:33.872Z,67.14
2022-07-29T00:22:33.830Z,67.64
2022-07-29T00:23:36.654Z,67.34
2022-07-29T00:24:33.801Z,67.24
2022-07-29T00:25:33.900Z,66.83
2022-07-29T00:26:33.804Z,67.14
2022-07-29T00:27:33.772Z,67.14
2022-07-29T00:28:33.763Z,67.14
2022-07-29T00:29:34.948Z,67.34
2022-07-29T00:30:33.742Z,67.24
2022-07-29T00:31:33.809Z,67.34
2022-07-29T00:32:33.715Z,67.54
2022-07-29T00:33:33.712Z,67.57
2022-07-29T00:34:33.724Z,67.77
2022-07-29T00:35:33.692Z,67.77
2022-07-29T00:36:33.679Z,67.77
2022-07-29T00:37:33.664Z,67.88
2022-07-29T00:38:33.653Z,67.88
2022-07-29T00:39:33.657Z,68.18
2022-07-29T00:40:33.655Z,68.48
2022-07-29T00:41:33.627Z,68.48
2022-07-29T00:42:33.633Z,68.38
2022-07-29T00:43:33.605Z,68.61
2022-07-29T00:44:33.597Z,68.61
2022-07-29T00:45:33.582Z,69.01
2022-07-29T00:46:33.638Z,69.01
2022-07-29T00:47:33.565Z,69.42
2022-07-29T00:48:33.548Z,69.42
2022-07-29T00:49:33.539Z,69.82
2022-07-29T00:50:33.517Z,70.15
2022-07-29T00:51:33.545Z,70.46
2022-07-29T00:52:33.500Z,70.46
2022-07-29T00:53:33.487Z,70.66
2022-07-29T00:54:33.485Z,71.47
2022-07-29T00:55:33.468Z,71.57
2022-07-29T00:56:33.485Z,71.77
2022-07-29T00:57:33.458Z,71.77
2022-07-29T00:58:33.440Z,71.57
2022-07-29T00:59:34.826Z,71.57
2022-07-29T01:00:33.517Z,71.80
2022-07-29T01:01:33.481Z,72.00
2022-07-29T01:02:33.448Z,71.80
2022-07-29T01:03:33.412Z,72.00
2022-07-29T01:04:33.379Z,71.60
2022-07-29T01:05:48.504Z,71.80
2022-07-29T01:06:34.349Z,72.00
2022-07-29T01:07:33.343Z,71.70
2022-07-29T01:08:33.328Z,71.60
2022-07-29T01:09:43.053Z,71.30
2022-07-29T01:10:34.301Z,71.30
2022-07-29T01:11:33.290Z,71.10
2022-07-29T01:12:33.311Z,71.30
2022-07-29T01:13:33.271Z,71.20
2022-07-29T01:14:33.290Z,71.70
2022-07-29T01:15:33.252Z,71.70
2022-07-29T01:16:33.372Z,71.91
2022-07-29T01:17:33.250Z,72.00
2022-07-29T01:18:33.226Z,71.91
2022-07-29T01:19:33.213Z,71.70
2022-07-29T01:20:33.229Z,71.91
2022-07-29T01:21:33.193Z,72.11
2022-07-29T01:22:33.171Z,72.20
2022-07-29T01:23:33.166Z,72.31
2022-07-29T01:24:33.152Z,72.71
2022-07-29T01:25:33.145Z,72.61
2022-07-29T01:26:33.155Z,72.71
2022-07-29T01:27:33.121Z,72.61
2022-07-29T01:28:33.154Z,72.75
2022-07-29T01:29:36.143Z,72.91
2022-07-29T01:30:34.084Z,73.01
2022-07-29T01:31:33.126Z,73.05
2022-07-29T01:32:33.147Z,73.05
2022-07-29T01:33:33.083Z,73.15
2022-07-29T01:34:33.044Z,73.05
2022-07-29T01:35:33.036Z,73.15
2022-07-29T01:36:33.015Z,73.15
2022-07-29T01:37:33.048Z,73.35
2022-07-29T01:38:32.993Z,73.75
2022-07-29T01:39:33.422Z,73.85
2022-07-29T01:40:32.978Z,73.75
2022-07-29T01:41:32.965Z,73.45
2022-07-29T01:42:32.956Z,73.65
2022-07-29T01:43:32.967Z,73.75
2022-07-29T01:44:32.937Z,73.85
2022-07-29T01:45:32.927Z,73.85
2022-07-29T01:46:32.987Z,73.96
2022-07-29T01:47:32.898Z,73.96
2022-07-29T01:48:32.912Z,73.75
2022-07-29T01:49:32.877Z,73.65
2022-07-29T01:50:32.868Z,73.65
2022-07-29T01:51:32.863Z,73.55
2022-07-29T01:52:32.845Z,73.75
2022-07-29T01:53:37.799Z,74.05
2022-07-29T01:54:33.819Z,73.96
2022-07-29T01:55:32.819Z,73.96
2022-07-29T01:56:32.805Z,73.96
2022-07-29T01:57:32.797Z,73.75
2022-07-29T01:58:32.816Z,73.45
2022-07-29T01:59:32.785Z,73.35
2022-07-29T02:00:32.749Z,73.05
2022-07-29T02:01:32.786Z,73.15
2022-07-29T02:02:32.729Z,73.35
2022-07-29T02:03:32.758Z,73.35
2022-07-29T02:04:32.719Z,73.49
2022-07-29T02:05:32.713Z,73.38
2022-07-29T02:06:32.691Z,73.38
2022-07-29T02:07:32.678Z,73.49
2022-07-29T02:08:32.672Z,73.58
2022-07-29T02:09:32.691Z,73.58
2022-07-29T02:10:32.646Z,73.89
2022-07-29T02:11:32.641Z,73.99
2022-07-29T02:12:32.654Z,74.19
2022-07-29T02:13:32.621Z,74.19
2022-07-29T02:14:32.619Z,74.29
2022-07-29T02:15:32.630Z,74.19
2022-07-29T02:16:32.622Z,74.19
2022-07-29T02:17:32.572Z,73.89
2022-07-29T02:18:32.561Z,73.99
2022-07-29T02:19:32.552Z,73.79
2022-07-29T02:20:32.535Z,72.88
2022-07-29T02:21:32.554Z,73.18
2022-07-29T02:22:32.521Z,73.18
2022-07-29T02:23:32.509Z,72.78
2022-07-29T02:24:33.493Z,72.78
2022-07-29T02:25:36.981Z,73.08
2022-07-29T02:26:33.501Z,72.98
2022-07-29T02:27:32.466Z,72.98
2022-07-29T02:28:32.445Z,73.58
2022-07-29T02:29:32.440Z,74.09
2022-07-29T02:30:32.424Z,73.69
2022-07-29T02:31:32.465Z,74.09
2022-07-29T02:32:32.426Z,74.13
2022-07-29T02:33:32.395Z,74.43
2022-07-29T02:34:32.384Z,74.02
2022-07-29T02:35:34.560Z,73.93
2022-07-29T02:36:32.355Z,74.33
2022-07-29T02:37:32.355Z,74.93
2022-07-29T02:38:32.361Z,75.04
2022-07-29T02:39:32.336Z,74.93
2022-07-29T02:40:32.316Z,75.04
2022-07-29T02:41:32.311Z,75.44
2022-07-29T02:42:32.297Z,75.64
2022-07-29T02:43:32.307Z,75.74
2022-07-29T02:44:34.706Z,75.44
2022-07-29T02:45:32.268Z,75.24
2022-07-29T02:46:32.296Z,75.24
2022-07-29T02:47:32.249Z,75.13
2022-07-29T02:48:33.267Z,74.84
2022-07-29T02:49:32.225Z,74.84
2022-07-29T02:50:32.208Z,74.73
2022-07-29T02:51:43.771Z,74.53
2022-07-29T02:52:33.198Z,74.84
2022-07-29T02:53:32.180Z,74.53
2022-07-29T02:54:32.191Z,74.53
2022-07-29T02:55:32.158Z,74.84
2022-07-29T02:56:32.142Z,75.04
2022-07-29T02:57:32.136Z,74.33
2022-07-29T02:58:32.118Z,74.84
2022-07-29T02:59:32.158Z,74.53
2022-07-29T03:00:32.120Z,74.73
2022-07-29T03:01:32.152Z,74.63
2022-07-29T03:02:32.079Z,74.73
2022-07-29T03:03:32.069Z,74.63
2022-07-29T03:04:32.086Z,74.73
2022-07-29T03:05:32.070Z,74.93
2022-07-29T03:06:39.829Z,74.97
2022-07-29T03:07:32.029Z,74.63
2022-07-29T03:08:32.014Z,74.66
2022-07-29T03:09:32.000Z,74.77
2022-07-29T03:10:32.011Z,74.77
2022-07-29T03:11:42.373Z,74.87
2022-07-29T03:12:32.977Z,75.07
2022-07-29T03:13:31.959Z,74.87
2022-07-29T03:14:31.951Z,75.07
2022-07-29T03:15:31.938Z,75.07
2022-07-29T03:16:32.001Z,74.87
2022-07-29T03:17:31.911Z,74.37
2022-07-29T03:18:31.926Z,74.87
2022-07-29T03:19:31.891Z,74.66
2022-07-29T03:20:31.882Z,74.46
2022-07-29T03:21:31.870Z,74.26
2022-07-29T03:22:31.859Z,73.86
2022-07-29T03:23:35.322Z,74.46
2022-07-29T03:24:32.837Z,74.26
2022-07-29T03:25:31.822Z,73.75
2022-07-29T03:26:31.832Z,73.96
2022-07-29T03:27:31.806Z,73.75
2022-07-29T03:28:31.815Z,73.86
2022-07-29T03:29:33.503Z,74.26
2022-07-29T03:30:31.773Z,74.57
2022-07-29T03:31:31.815Z,74.26
2022-07-29T03:32:31.743Z,74.77
2022-07-29T03:33:31.742Z,74.97
2022-07-29T03:34:31.726Z,74.57
2022-07-29T03:35:31.725Z,75.07
2022-07-29T03:36:31.709Z,75.27
2022-07-29T03:37:31.713Z,75.37
2022-07-29T03:38:31.682Z,75.37
2022-07-29T03:39:31.674Z,75.27
2022-07-29T03:40:31.656Z,75.07
2022-07-29T03:41:31.655Z,74.97
2022-07-29T03:42:34.321Z,75.17
2022-07-29T03:43:31.636Z,75.57
2022-07-29T03:44:31.618Z,75.68
2022-07-29T03:45:31.605Z,75.78
2022-07-29T03:46:31.647Z,76.12
2022-07-29T03:47:39.288Z,76.32
2022-07-29T03:48:32.597Z,76.32
2022-07-29T03:49:31.567Z,76.52
2022-07-29T03:50:31.630Z,76.42
2022-07-29T03:51:34.001Z,76.42
2022-07-29T03:52:31.532Z,76.28
2022-07-29T03:53:31.541Z,76.08
2022-07-29T03:54:31.512Z,76.18
2022-07-29T03:55:31.503Z,76.08
2022-07-29T03:56:31.485Z,76.39
2022-07-29T03:57:31.478Z,76.28
2022-07-29T03:58:31.478Z,75.57
2022-07-29T03:59:31.459Z,75.88
2022-07-29T04:00:31.440Z,76.39
2022-07-29T04:01:31.452Z,76.48
2022-07-29T04:02:31.479Z,76.48
2022-07-29T04:03:31.517Z,76.48
2022-07-29T04:04:31.400Z,76.59
2022-07-29T04:05:31.390Z,76.59
2022-07-29T04:06:31.371Z,76.59
2022-07-29T04:07:31.390Z,76.48
2022-07-29T04:08:31.350Z,76.28
2022-07-29T04:09:31.373Z,75.98
2022-07-29T04:10:31.931Z,76.08
2022-07-29T04:11:31.320Z,76.18
2022-07-29T04:12:31.310Z,76.28
2022-07-29T04:13:31.301Z,76.25
2022-07-29T04:14:31.289Z,76.04
2022-07-29T04:15:31.949Z,75.95
2022-07-29T04:16:31.286Z,75.24
2022-07-29T04:17:31.258Z,75.24
2022-07-29T04:18:31.241Z,75.04
2022-07-29T04:19:31.258Z,75.34
2022-07-29T04:20:31.218Z,75.04
2022-07-29T04:21:31.222Z,75.24
2022-07-29T04:22:31.204Z,74.93
2022-07-29T04:23:31.194Z,75.00
2022-07-29T04:24:31.201Z,74.90
2022-07-29T04:25:31.194Z,74.69
2022-07-29T04:26:31.178Z,74.19
2022-07-29T04:27:31.158Z,74.19
2022-07-29T04:28:31.136Z,74.19
2022-07-29T04:29:31.201Z,73.99
2022-07-29T04:30:31.135Z,74.19
2022-07-29T04:31:31.269Z,73.99
2022-07-29T04:32:31.125Z,73.58
2022-07-29T04:33:31.136Z,74.09
2022-07-29T04:34:31.066Z,73.69
2022-07-29T04:35:31.054Z,73.49
2022-07-29T04:36:32.066Z,73.35
2022-07-29T04:37:31.043Z,73.35
2022-07-29T04:38:31.023Z,73.35
2022-07-29T04:39:31.034Z,73.35
2022-07-29T04:40:31.006Z,73.25
2022-07-29T04:41:33.282Z,73.35
2022-07-29T04:42:30.986Z,73.45
2022-07-29T04:43:30.998Z,73.65
2022-07-29T04:44:31.956Z,73.28
2022-07-29T04:45:31.974Z,73.89
2022-07-29T04:46:30.983Z,74.26
2022-07-29T04:47:30.925Z,74.05
2022-07-29T04:48:30.917Z,74.05
2022-07-29T04:49:30.958Z,74.26
2022-07-29T04:50:30.897Z,74.05
2022-07-29T04:51:30.890Z,74.26
2022-07-29T04:52:31.012Z,74.36
2022-07-29T04:53:30.868Z,74.56
2022-07-29T04:54:30.848Z,74.26
2022-07-29T04:55:30.858Z,73.82
2022-07-29T04:56:31.583Z,74.02
2022-07-29T04:57:30.821Z,74.22
2022-07-29T04:58:30.807Z,74.32
2022-07-29T04:59:30.826Z,73.82
2022-07-29T05:00:33.281Z,73.92
2022-07-29T05:01:30.856Z,73.52
2022-07-29T05:02:30.824Z,73.42
2022-07-29T05:03:30.761Z,73.52
2022-07-29T05:04:30.750Z,73.08
2022-07-29T05:05:30.770Z,73.08
2022-07-29T05:06:30.723Z,72.88
2022-07-29T05:07:30.711Z,73.28
2022-07-29T05:08:30.721Z,72.67
2022-07-29T05:09:30.692Z,73.28
2022-07-29T05:10:30.672Z,73.48
2022-07-29T05:11:30.750Z,73.08
2022-07-29T05:12:30.671Z,73.58
2022-07-29T05:13:30.641Z,73.08
2022-07-29T05:14:31.622Z,73.48
2022-07-29T05:15:30.659Z,72.88
2022-07-29T05:16:30.604Z,73.79
2022-07-29T05:17:30.633Z,73.88
2022-07-29T05:18:30.601Z,74.39
2022-07-29T05:19:30.583Z,74.49
2022-07-29T05:20:30.606Z,74.69
2022-07-29T05:21:30.578Z,74.79
2022-07-29T05:22:30.553Z,74.49
2022-07-29T05:23:30.564Z,74.49
2022-07-29T05:24:30.515Z,74.19
2022-07-29T05:25:42.014Z,74.08
2022-07-29T05:26:31.514Z,74.08
2022-07-29T05:27:30.497Z,74.49
2022-07-29T05:28:30.482Z,75.70
2022-07-29T05:29:43.361Z,74.79
2022-07-29T05:30:31.580Z,74.49
2022-07-29T05:31:30.498Z,74.59
2022-07-29T05:32:30.435Z,74.55
2022-07-29T05:33:36.074Z,74.66
2022-07-29T05:34:31.452Z,73.45
2022-07-29T05:35:30.415Z,74.39
2022-07-29T05:36:30.396Z,74.90
2022-07-29T05:37:30.378Z,74.96
2022-07-29T05:38:30.369Z,74.35
2022-07-29T05:39:46.613Z,74.19
2022-07-29T05:40:31.339Z,75.20
2022-07-29T05:41:30.337Z,75.20
2022-07-29T05:42:30.317Z,75.63
2022-07-29T05:43:30.310Z,75.50
2022-07-29T05:44:30.356Z,75.30
2022-07-29T05:45:30.356Z,75.43
2022-07-29T05:46:30.369Z,75.84
2022-07-29T05:47:30.281Z,76.24
2022-07-29T05:48:30.297Z,75.74
2022-07-29T05:49:30.341Z,75.80
2022-07-29T05:50:30.265Z,75.40
2022-07-29T05:51:30.273Z,74.99
2022-07-29T05:52:30.250Z,75.20
2022-07-29T05:53:30.250Z,75.70
2022-07-29T05:54:30.210Z,75.70
2022-07-29T05:55:30.192Z,76.00
2022-07-29T05:56:30.178Z,75.56
2022-07-29T05:57:30.219Z,75.40
2022-07-29T05:58:30.182Z,75.60
2022-07-29T05:59:30.696Z,76.20
2022-07-29T06:00:30.211Z,75.50
2022-07-29T06:01:30.234Z,75.60
2022-07-29T06:02:30.113Z,75.80
2022-07-29T06:03:30.188Z,75.40
2022-07-29T06:04:30.126Z,75.20
2022-07-29T06:05:30.100Z,74.93
2022-07-29T06:06:30.061Z,75.63
2022-07-29T06:07:30.078Z,75.54
2022-07-29T06:08:30.049Z,75.13
2022-07-29T06:09:30.100Z,75.13
2022-07-29T06:10:30.068Z,75.30
2022-07-29T06:11:30.014Z,74.73
2022-07-29T06:12:30.026Z,75.20
2022-07-29T06:13:29.985Z,75.20
2022-07-29T06:14:29.974Z,75.10
2022-07-29T06:15:29.965Z,74.08
2022-07-29T06:16:30.558Z,73.58
2022-07-29T06:17:29.944Z,74.49
2022-07-29T06:18:29.954Z,73.85
2022-07-29T06:19:29.932Z,73.85
2022-07-29T06:20:29.942Z,72.74
2022-07-29T06:21:29.895Z,73.11
2022-07-29T06:22:29.906Z,72.91
2022-07-29T06:23:29.913Z,73.01
2022-07-29T06:24:29.865Z,72.81
2022-07-29T06:25:29.855Z,72.07
2022-07-29T06:26:30.410Z,72.97
2022-07-29T06:27:29.835Z,73.08
2022-07-29T06:28:29.827Z,72.57
2022-07-29T06:29:29.833Z,72.77
2022-07-29T06:30:29.895Z,72.77
2022-07-29T06:31:29.787Z,72.77
2022-07-29T06:32:29.776Z,72.27
2022-07-29T06:33:29.769Z,72.27
2022-07-29T06:34:29.768Z,72.71
2022-07-29T06:35:39.167Z,73.21
2022-07-29T06:36:30.757Z,74.12
2022-07-29T06:37:29.743Z,74.12
2022-07-29T06:38:30.718Z,73.11
2022-07-29T06:39:29.721Z,73.68
2022-07-29T06:40:29.688Z,73.08
2022-07-29T06:41:29.678Z,73.18
2022-07-29T06:42:29.688Z,73.38
2022-07-29T06:43:29.688Z,73.38
2022-07-29T06:44:29.653Z,73.48
2022-07-29T06:45:29.645Z,73.38
2022-07-29T06:46:29.703Z,73.28
2022-07-29T06:47:29.612Z,72.88
2022-07-29T06:48:29.621Z,73.28
2022-07-29T06:49:29.784Z,72.94
2022-07-29T06:50:29.649Z,72.14
2022-07-29T06:51:29.583Z,72.10
2022-07-29T06:52:29.580Z,71.90
2022-07-29T06:53:29.548Z,71.30
2022-07-29T06:54:29.531Z,71.50
2022-07-29T06:55:29.524Z,71.30
2022-07-29T06:56:29.517Z,72.44
2022-07-29T06:57:29.531Z,72.54
2022-07-29T06:58:29.516Z,72.54
2022-07-29T06:59:35.051Z,72.44
2022-07-29T07:00:30.472Z,72.88
2022-07-29T07:01:29.573Z,73.04
2022-07-29T07:02:29.527Z,73.14
2022-07-29T07:03:29.452Z,72.20
2022-07-29T07:04:29.432Z,71.47
2022-07-29T07:05:29.421Z,70.86
2022-07-29T07:06:29.432Z,70.53
2022-07-29T07:07:29.396Z,69.99
2022-07-29T07:08:29.484Z,69.39
2022-07-29T07:09:30.463Z,69.06
2022-07-29T07:10:30.384Z,68.95
2022-07-29T07:11:29.422Z,68.42
2022-07-29T07:12:29.337Z,68.62
2022-07-29T07:13:29.332Z,68.62
2022-07-29T07:14:29.335Z,68.99
2022-07-29T07:15:39.421Z,68.42
2022-07-29T07:16:30.371Z,69.12
2022-07-29T07:17:29.296Z,69.02
2022-07-29T07:18:29.268Z,68.95
2022-07-29T07:19:29.265Z,69.02
2022-07-29T07:20:29.287Z,68.62
2022-07-29T07:21:30.317Z,68.72
2022-07-29T07:22:29.238Z,68.82
2022-07-29T07:23:29.226Z,68.52
2022-07-29T07:24:29.217Z,68.39
2022-07-29T07:25:29.225Z,67.99
2022-07-29T07:26:29.195Z,67.25
2022-07-29T07:27:29.178Z,67.05
2022-07-29T07:28:29.161Z,66.95
2022-07-29T07:29:29.149Z,66.45
2022-07-29T07:30:29.152Z,66.12
2022-07-29T07:31:29.226Z,66.22
2022-07-29T07:32:29.117Z,65.92
2022-07-29T07:33:29.138Z,65.42
2022-07-29T07:34:29.555Z,65.09
2022-07-29T07:35:29.098Z,64.59
2022-07-29T07:36:29.078Z,64.78
2022-07-29T07:37:29.072Z,64.75
2022-07-29T07:38:29.057Z,64.36
2022-07-29T07:39:29.099Z,64.15
2022-07-29T07:40:29.039Z,64.06
2022-07-29T07:41:32.360Z,64.15
2022-07-29T07:42:29.032Z,64.09
2022-07-29T07:43:29.009Z,64.81
2022-07-29T07:44:28.998Z,65.72
2022-07-29T07:45:29.077Z,66.02
2022-07-29T07:46:29.764Z,66.22
2022-07-29T07:47:28.995Z,66.25
2022-07-29T07:48:28.959Z,66.22
2022-07-29T07:49:29.007Z,66.72
2022-07-29T07:50:28.924Z,66.82
2022-07-29T07:51:28.964Z,67.02
2022-07-29T07:52:28.907Z,66.92
2022-07-29T07:53:28.893Z,67.19
2022-07-29T07:54:28.894Z,66.99
2022-07-29T07:55:28.875Z,66.99
2022-07-29T07:56:34.808Z,66.75
2022-07-29T07:57:29.896Z,65.95
2022-07-29T07:58:28.857Z,65.86
2022-07-29T07:59:28.856Z,66.39
2022-07-29T08:00:28.852Z,67.22
2022-07-29T08:01:28.895Z,67.12
2022-07-29T08:02:28.865Z,66.69
2022-07-29T08:03:28.798Z,66.69
2022-07-29T08:04:29.482Z,66.69
2022-07-29T08:05:28.788Z,66.86
2022-07-29T08:06:28.794Z,65.59
2022-07-29T08:07:28.766Z,66.19
2022-07-29T08:08:28.728Z,66.78
2022-07-29T08:09:30.350Z,65.89
2022-07-29T08:10:28.726Z,65.78
2022-07-29T08:11:28.748Z,65.89
2022-07-29T08:12:29.727Z,66.19
2022-07-29T08:13:28.687Z,66.52
2022-07-29T08:14:28.708Z,66.78
2022-07-29T08:15:28.675Z,66.39
2022-07-29T08:16:28.730Z,65.78
2022-07-29T08:17:28.649Z,65.78
2022-07-29T08:18:28.667Z,65.86
2022-07-29T08:19:28.651Z,66.46
2022-07-29T08:20:28.632Z,66.66
2022-07-29T08:21:28.611Z,65.25
2022-07-29T08:22:28.580Z,65.62
2022-07-29T08:23:45.447Z,65.25
2022-07-29T08:24:29.592Z,64.86
2022-07-29T08:25:28.572Z,65.33
2022-07-29T08:26:28.539Z,65.05
2022-07-29T08:27:44.428Z,65.16
2022-07-29T08:28:29.524Z,65.75
2022-07-29T08:29:28.521Z,65.95
2022-07-29T08:30:28.504Z,65.25
2022-07-29T08:31:28.523Z,64.65
2022-07-29T08:32:51.249Z,65.45
2022-07-29T08:33:29.455Z,64.95
2022-07-29T08:34:28.509Z,65.69
2022-07-29T08:35:32.068Z,67.19
2022-07-29T08:36:29.442Z,67.19
2022-07-29T08:37:28.430Z,67.09
2022-07-29T08:38:28.406Z,66.66
2022-07-29T08:39:28.396Z,65.66
2022-07-29T08:40:30.599Z,66.05
2022-07-29T08:41:28.384Z,65.33
2022-07-29T08:42:28.367Z,65.05
2022-07-29T08:43:28.372Z,65.95
2022-07-29T08:44:30.848Z,66.13
2022-07-29T08:45:28.347Z,65.89
2022-07-29T08:46:28.344Z,64.99
2022-07-29T08:47:28.308Z,64.79
2022-07-29T08:48:28.301Z,65.09
2022-07-29T08:49:28.364Z,65.26
2022-07-29T08:50:28.276Z,64.39
2022-07-29T08:51:28.286Z,64.79
2022-07-29T08:52:28.368Z,64.69
2022-07-29T08:53:28.288Z,65.29
2022-07-29T08:54:28.230Z,65.69
2022-07-29T08:55:28.221Z,65.56
2022-07-29T08:56:28.239Z,65.06
2022-07-29T08:57:28.230Z,64.86
2022-07-29T08:58:28.371Z,64.36
2022-07-29T08:59:28.178Z,64.19
2022-07-29T09:00:28.170Z,65.06
2022-07-29T09:01:36.289Z,65.36
2022-07-29T09:02:29.272Z,65.53
2022-07-29T09:03:28.295Z,65.33
2022-07-29T09:04:28.183Z,65.33
2022-07-29T09:05:28.181Z,64.23
2022-07-29T09:06:28.209Z,64.23
2022-07-29T09:07:31.822Z,64.66
2022-07-29T09:08:29.166Z,65.06
2022-07-29T09:09:28.077Z,64.86
2022-07-29T09:10:28.054Z,64.29
2022-07-29T09:11:28.064Z,65.69
2022-07-29T09:12:29.272Z,65.72
2022-07-29T09:13:28.022Z,66.72
2022-07-29T09:14:28.014Z,65.66
2022-07-29T09:15:27.995Z,66.39
2022-07-29T09:16:51.863Z,67.09
2022-07-29T09:17:29.003Z,67.49
2022-07-29T09:18:30.424Z,67.49
2022-07-29T09:19:27.961Z,67.39
2022-07-29T09:20:27.946Z,67.69
2022-07-29T09:21:27.939Z,67.59
2022-07-29T09:22:27.988Z,68.39
2022-07-29T09:23:27.983Z,68.42
2022-07-29T09:24:27.905Z,67.52
2022-07-29T09:25:27.888Z,68.42
2022-07-29T09:26:27.887Z,68.52
2022-07-29T09:27:27.867Z,68.92
2022-07-29T09:28:27.887Z,67.92
2022-07-29T09:29:27.869Z,67.85
2022-07-29T09:30:31.310Z,68.46
2022-07-29T09:31:27.854Z,68.76
2022-07-29T09:32:27.966Z,69.56
2022-07-29T09:33:27.828Z,69.56
2022-07-29T09:34:27.811Z,69.16
2022-07-29T09:35:27.809Z,69.46
2022-07-29T09:36:27.781Z,70.26
2022-07-29T09:37:27.760Z,70.36
2022-07-29T09:38:27.751Z,69.35
2022-07-29T09:39:27.740Z,69.86
2022-07-29T09:40:27.761Z,69.96
2022-07-29T09:41:27.720Z,69.82
2022-07-29T09:42:27.711Z,69.82
2022-07-29T09:43:27.705Z,69.49
2022-07-29T09:44:27.691Z,69.29
2022-07-29T09:45:27.672Z,68.96
2022-07-29T09:46:27.756Z,68.86
2022-07-29T09:47:27.653Z,68.93
2022-07-29T09:48:27.652Z,68.82
2022-07-29T09:49:27.737Z,68.23
2022-07-29T09:50:27.623Z,67.69
2022-07-29T09:51:38.594Z,67.49
2022-07-29T09:52:28.604Z,67.40
2022-07-29T09:53:27.597Z,66.76
2022-07-29T09:54:27.583Z,66.46
2022-07-29T09:55:27.591Z,65.53
2022-07-29T09:56:27.557Z,65.36
2022-07-29T09:57:30.962Z,65.76
2022-07-29T09:58:27.596Z,65.93
2022-07-29T09:59:27.635Z,66.13
2022-07-29T10:00:27.538Z,65.16
2022-07-29T10:01:27.652Z,65.89
2022-07-29T10:02:27.539Z,65.89
2022-07-29T10:03:27.571Z,66.19
2022-07-29T10:04:27.538Z,65.79
2022-07-29T10:05:36.755Z,66.22
2022-07-29T10:06:28.456Z,65.22
2022-07-29T10:07:27.501Z,65.69
2022-07-29T10:08:27.513Z,66.29
2022-07-29T10:09:27.472Z,65.79
2022-07-29T10:10:27.527Z,65.86
2022-07-29T10:11:27.389Z,66.16
2022-07-29T10:12:28.399Z,65.63
2022-07-29T10:13:27.369Z,65.43
2022-07-29T10:14:27.360Z,64.47
2022-07-29T10:15:27.472Z,64.24
2022-07-29T10:16:27.419Z,63.81
2022-07-29T10:17:27.324Z,63.38
2022-07-29T10:18:27.341Z,63.12
2022-07-29T10:19:27.309Z,61.90
2022-07-29T10:20:27.301Z,60.17
2022-07-29T10:21:36.187Z,59.25
2022-07-29T10:22:51.880Z,57.93
2022-07-29T10:23:28.285Z,58.20
2022-07-29T10:24:27.576Z,56.68
2022-07-29T10:25:27.242Z,56.51
2022-07-29T10:26:27.233Z,55.26
2022-07-29T10:27:27.221Z,55.04
2022-07-29T10:28:28.225Z,55.34
2022-07-29T10:29:27.194Z,57.60
2022-07-29T10:30:27.184Z,59.12
2022-07-29T10:31:27.240Z,58.43
2022-07-29T10:32:27.165Z,58.45
2022-07-29T10:33:27.176Z,59.22
2022-07-29T10:34:27.145Z,58.70
2022-07-29T10:35:27.136Z,58.92
2022-07-29T10:36:27.145Z,60.05
2022-07-29T10:37:27.186Z,61.37
2022-07-29T10:38:27.098Z,62.86
2022-07-29T10:39:27.109Z,63.89
2022-07-29T10:40:28.104Z,64.72
2022-07-29T10:41:27.084Z,63.22
2022-07-29T10:42:29.720Z,65.14
2022-07-29T10:43:28.068Z,65.17
2022-07-29T10:44:27.037Z,65.91
2022-07-29T10:45:27.050Z,66.73
2022-07-29T10:46:27.093Z,67.83
2022-07-29T10:47:27.001Z,66.63
2022-07-29T10:48:27.001Z,66.93
2022-07-29T10:49:27.043Z,67.16
2022-07-29T10:50:26.978Z,68.26
2022-07-29T10:51:27.563Z,67.60
2022-07-29T10:52:30.305Z,68.10
2022-07-29T10:53:27.078Z,68.43
2022-07-29T10:54:27.936Z,68.93
2022-07-29T10:55:26.913Z,69.23
2022-07-29T10:56:27.940Z,69.43
2022-07-29T10:57:52.528Z,68.96
2022-07-29T10:58:27.883Z,70.29
2022-07-29T10:59:26.872Z,70.09
2022-07-29T11:00:27.864Z,69.89
2022-07-29T11:01:37.431Z,70.43
2022-07-29T11:02:42.669Z,71.23
2022-07-29T11:03:27.852Z,71.33
2022-07-29T11:04:26.823Z,70.83
2022-07-29T11:05:32.019Z,71.12
2022-07-29T11:06:28.192Z,71.33
2022-07-29T11:07:26.871Z,71.12
2022-07-29T11:08:28.285Z,72.03
2022-07-29T11:09:37.794Z,72.46
2022-07-29T11:10:31.369Z,73.16
2022-07-29T11:11:29.766Z,74.26
2022-07-29T11:12:26.819Z,73.90
2022-07-29T11:13:26.746Z,74.60
2022-07-29T11:14:26.709Z,75.10
2022-07-29T11:15:28.666Z,76.24
2022-07-29T11:16:26.698Z,75.93
2022-07-29T11:17:26.717Z,76.43
2022-07-29T11:18:26.694Z,76.64
2022-07-29T11:19:30.587Z,76.84
2022-07-29T11:20:26.658Z,76.17
2022-07-29T11:21:26.630Z,76.67
2022-07-29T11:22:27.625Z,76.78
2022-07-29T11:23:26.636Z,77.48
2022-07-29T11:24:28.689Z,76.37
2022-07-29T11:25:50.479Z,76.47
2022-07-29T11:26:27.580Z,76.71
2022-07-29T11:27:28.590Z,76.61
2022-07-29T11:28:26.570Z,77.05
2022-07-29T11:29:26.573Z,77.45
2022-07-29T11:30:26.541Z,77.51
2022-07-29T11:31:26.521Z,77.01
2022-07-29T11:32:29.311Z,77.05
2022-07-29T11:33:54.113Z,77.55
2022-07-29T11:34:28.126Z,77.61
2022-07-29T11:35:37.330Z,76.85
2022-07-29T11:36:27.816Z,77.25
2022-07-29T11:37:28.081Z,77.72
2022-07-29T11:38:27.966Z,77.35
2022-07-29T11:39:26.453Z,77.45
2022-07-29T11:40:27.459Z,77.05
2022-07-29T11:41:27.398Z,76.85
2022-07-29T11:42:28.844Z,77.39
2022-07-29T11:43:27.406Z,77.79
2022-07-29T11:44:26.400Z,77.39
2022-07-29T11:46:27.384Z,77.65
2022-07-29T11:47:26.345Z,77.45
2022-07-29T11:48:31.705Z,77.45
2022-07-29T11:49:32.035Z,77.45
2022-07-29T11:50:27.344Z,77.55
2022-07-29T11:52:27.297Z,77.65
2022-07-29T11:53:29.172Z,78.05
2022-07-29T11:54:27.788Z,77.99
2022-07-29T11:55:32.286Z,78.59
2022-07-29T11:56:27.286Z,79.13
2022-07-29T11:57:36.643Z,81.14
2022-07-29T11:58:27.258Z,81.14
2022-07-29T11:59:32.924Z,80.94
2022-07-29T12:00:27.238Z,81.34
2022-07-29T12:01:26.198Z,80.90
2022-07-29T12:02:36.532Z,81.34
2022-07-29T12:03:35.567Z,82.60
2022-07-29T12:04:27.168Z,82.51
2022-07-29T12:05:36.201Z,82.90
2022-07-29T12:07:02.231Z,77.15
2022-07-29T12:07:37.455Z,84.01
2022-07-29T12:08:37.338Z,84.61
2022-07-29T12:09:40.363Z,85.02
2022-07-29T12:10:37.349Z,83.85
2022-07-29T12:11:37.329Z,84.31
2022-07-29T12:12:37.300Z,85.02
2022-07-29T12:13:38.080Z,84.81
2022-07-29T12:14:37.278Z,85.02
2022-07-29T12:15:47.109Z,85.11
2022-07-29T12:16:38.381Z,84.71
2022-07-29T12:17:37.240Z,83.91
2022-07-29T12:18:37.231Z,84.61
2022-07-29T12:19:37.222Z,85.02
2022-07-29T12:20:37.214Z,85.08
2022-07-29T12:21:37.223Z,84.11
2022-07-29T12:22:38.229Z,84.81
2022-07-29T12:23:37.181Z,84.71
2022-07-29T12:24:37.164Z,84.61
2022-07-29T12:25:37.166Z,85.02
2022-07-29T12:26:37.144Z,84.88
2022-07-29T12:27:40.297Z,84.88
2022-07-29T12:28:37.143Z,84.77
2022-07-29T12:29:37.116Z,84.57
2022-07-29T12:30:37.095Z,84.47
2022-07-29T12:31:43.589Z,84.23
2022-07-29T12:32:38.097Z,84.13
2022-07-29T12:33:37.096Z,83.63
2022-07-29T12:34:37.054Z,83.03
2022-07-29T12:35:37.056Z,82.69
2022-07-29T12:36:37.038Z,82.69
2022-07-29T12:37:40.956Z,82.89
2022-07-29T12:38:38.036Z,83.29
2022-07-29T12:39:37.006Z,83.29
2022-07-29T12:40:36.998Z,83.09
2022-07-29T12:41:36.979Z,83.49
2022-07-29T12:42:36.967Z,83.39
2022-07-29T12:43:36.968Z,82.69
2022-07-29T12:44:36.967Z,82.79
2022-07-29T12:45:36.948Z,82.55
2022-07-29T12:46:36.976Z,82.35
2022-07-29T12:47:36.921Z,82.65
2022-07-29T12:48:37.010Z,82.65
2022-07-29T12:49:38.123Z,82.24
2022-07-29T12:50:36.889Z,82.45
2022-07-29T12:51:36.879Z,82.55
2022-07-29T12:52:36.871Z,82.31
2022-07-29T12:53:36.859Z,81.01
2022-07-29T12:54:36.860Z,80.71